Time;durP1;ratioP1;P1;durP2;ratioP2;P2;SDS_P1;SDS_P2;PMS_P1;PMS_P2;Temp;Humidity;BMP_temperature;BMP_pressure;BME280_temperature;BME280_humidity;BME280_pressure;Samples;Min_cycle;Max_cycle;Signal;HPM_P1;HPM_P2
2021/03/13 00:01:09;;;;;;;4.53;2.13;;;;;;;-144.99;100.00;61100.13;5067755;28;20631;-76
2021/03/13 00:03:35;;;;;;;4.27;3.37;;;;;;;-144.99;100.00;61100.13;5068849;28;20676;-76
2021/03/13 00:06:01;;;;;;;4.63;1.87;;;;;;;-144.99;100.00;61100.13;5067736;28;20655;-76
2021/03/13 00:08:28;;;;;;;5.63;1.97;;;;;;;-144.99;100.00;61100.13;5068072;28;20287;-75
2021/03/13 00:10:54;;;;;;;2.80;1.60;;;;;;;-144.99;100.00;61100.13;5067986;28;20995;-76
2021/03/13 00:13:20;;;;;;;4.10;2.10;;;;;;;-144.99;100.00;61100.13;5069048;28;20623;-76
2021/03/13 00:15:47;;;;;;;10.00;2.07;;;;;;;-144.99;100.00;61100.13;5066772;28;20611;-77
2021/03/13 00:18:14;;;;;;;3.50;2.43;;;;;;;-144.99;100.00;61100.13;5068305;28;20990;-73
2021/03/13 00:20:42;;;;;;;4.50;1.43;;;;;;;-144.99;100.00;61100.13;5067649;28;20641;-75
2021/03/13 00:23:08;;;;;;;2.97;1.33;;;;;;;-144.99;100.00;61100.13;5068175;28;20611;-74
2021/03/13 00:25:37;;;;;;;4.37;1.67;;;;;;;-144.99;100.00;61100.13;5064968;28;20622;-77
2021/03/13 00:28:04;;;;;;;2.37;1.43;;;;;;;-144.99;100.00;61100.13;5067980;28;21075;-74
2021/03/13 00:30:31;;;;;;;3.60;0.90;;;;;;;-144.99;100.00;61100.13;5062339;28;20636;-75
2021/03/13 00:33:00;;;;;;;6.13;2.30;;;;;;;-144.99;100.00;61100.13;5068444;28;20634;-75
2021/03/13 00:35:27;;;;;;;3.00;1.10;;;;;;;-144.99;100.00;61100.13;5068432;28;20815;-77
2021/03/13 00:37:54;;;;;;;3.67;2.10;;;;;;;-144.99;100.00;61100.13;5071033;28;20776;-76
2021/03/13 00:40:22;;;;;;;7.00;1.70;;;;;;;-144.99;100.00;61100.13;5067399;28;20647;-78
2021/03/13 00:42:49;;;;;;;3.30;2.30;;;;;;;-144.99;100.00;61100.13;5068299;28;20617;-72
2021/03/13 00:45:17;;;;;;;4.10;1.47;;;;;;;-144.99;100.00;61100.13;5065342;28;20989;-73
2021/03/13 00:47:43;;;;;;;2.40;1.57;;;;;;;-144.99;100.00;61100.13;5067448;28;20704;-74
2021/03/13 00:50:11;;;;;;;3.27;1.30;;;;;;;-144.99;100.00;61100.13;5068260;28;21144;-74
2021/03/13 00:52:37;;;;;;;3.33;1.40;;;;;;;-144.99;100.00;61100.13;5068104;28;21030;-73
2021/03/13 00:55:03;;;;;;;6.67;1.63;;;;;;;-144.99;100.00;61100.13;5067835;28;20642;-73
2021/03/13 00:57:29;;;;;;;1.77;1.20;;;;;;;-144.99;100.00;61100.13;5067870;28;20667;-74
2021/03/13 00:59:56;;;;;;;6.47;2.50;;;;;;;-144.99;100.00;61100.13;5065695;28;20634;-73
2021/03/13 01:02:22;;;;;;;2.33;0.93;;;;;;;-144.99;100.00;61100.13;5068481;28;20555;-74
2021/03/13 01:04:48;;;;;;;4.53;1.73;;;;;;;-144.99;100.00;61100.13;5062232;28;20622;-73
2021/03/13 01:07:15;;;;;;;2.37;1.30;;;;;;;-144.99;100.00;61100.13;5067341;28;20236;-74
2021/03/13 01:09:41;;;;;;;5.17;1.53;;;;;;;-144.99;100.00;61100.13;5068655;28;20630;-73
2021/03/13 01:12:07;;;;;;;2.30;1.27;;;;;;;-144.99;100.00;61100.13;5068605;28;20628;-74
2021/03/13 01:14:34;;;;;;;5.87;2.13;;;;;;;-144.99;100.00;61100.13;5067255;28;20626;-76
2021/03/13 01:17:01;;;;;;;4.87;1.20;;;;;;;-144.99;100.00;61100.13;5068612;28;20651;-74
2021/03/13 01:19:27;;;;;;;2.30;2.10;;;;;;;-144.99;100.00;61100.13;5066598;28;21043;-73
2021/03/13 01:21:53;;;;;;;1.80;1.00;;;;;;;-144.99;100.00;61100.13;5068100;28;20615;-73
2021/03/13 01:24:19;;;;;;;3.87;1.80;;;;;;;-144.99;100.00;61100.13;5069239;28;20626;-74
2021/03/13 01:26:45;;;;;;;4.47;1.30;;;;;;;-144.99;100.00;61100.13;5068016;28;21282;-74
2021/03/13 01:29:11;;;;;;;7.00;1.47;;;;;;;-144.99;100.00;61100.13;5068759;28;20671;-73
2021/03/13 01:31:37;;;;;;;2.07;1.27;;;;;;;-144.99;100.00;61100.13;5066470;28;20740;-73
2021/03/13 01:34:04;;;;;;;3.17;1.20;;;;;;;-144.99;100.00;61100.13;5069386;28;20250;-73
2021/03/13 01:36:30;;;;;;;4.53;1.23;;;;;;;-144.99;100.00;61100.13;4717246;28;9999624;-74
2021/03/13 01:38:56;;;;;;;2.93;1.00;;;;;;;-144.99;100.00;61100.13;5068593;28;20254;-72
2021/03/13 01:41:22;;;;;;;2.03;1.13;;;;;;;-144.99;100.00;61100.13;5070772;28;20627;-76
2021/03/13 01:43:48;;;;;;;5.73;1.13;;;;;;;-144.99;100.00;61100.13;5072666;28;20247;-75
2021/03/13 01:46:14;;;;;;;4.57;1.33;;;;;;;-144.99;100.00;61100.13;5071611;28;20285;-73
2021/03/13 01:48:48;;;;;;;2.40;1.73;;;;;;;-144.99;100.00;61100.13;5073573;28;20193;-74
2021/03/13 01:51:15;;;;;;;4.30;1.70;;;;;;;-144.99;100.00;61100.13;5075413;28;20730;-73
2021/03/13 01:53:41;;;;;;;2.53;1.37;;;;;;;-144.99;100.00;61100.13;5075917;28;20626;-76
2021/03/13 01:56:08;;;;;;;4.03;1.33;;;;;;;-144.99;100.00;61100.13;5075722;28;20631;-74
2021/03/13 01:58:34;;;;;;;2.30;0.97;;;;;;;-144.99;100.00;61100.13;5074171;28;20636;-74
2021/03/13 02:01:00;;;;;;;3.20;1.23;;;;;;;-144.99;100.00;61100.13;5071302;28;20627;-75
2021/03/13 02:03:27;;;;;;;3.33;1.20;;;;;;;-144.99;100.00;61100.13;5073099;28;20631;-73
2021/03/13 02:05:55;;;;;;;6.53;1.37;;;;;;;-144.99;100.00;61100.13;5072163;28;20996;-74
2021/03/13 02:08:31;;;;;;;3.43;1.40;;;;;;;-144.99;100.00;61100.13;5073118;28;20623;-75
2021/03/13 02:11:05;;;;;;;4.73;1.80;;;;;;;-144.99;100.00;61100.13;5072751;28;20644;-74
2021/03/13 02:13:33;;;;;;;4.30;2.80;;;;;;;-144.99;100.00;61100.13;5072121;28;20648;-74
2021/03/13 02:16:10;;;;;;;4.80;2.03;;;;;;;-144.99;100.00;61100.13;5070056;28;20710;-72
2021/03/13 02:18:43;;;;;;;6.30;1.73;;;;;;;-144.99;100.00;61100.13;5072516;28;20658;-74
2021/03/13 02:21:22;;;;;;;5.97;3.00;;;;;;;-144.99;100.00;61100.13;5073058;28;20622;-75
2021/03/13 02:24:16;;;;;;;4.50;1.63;;;;;;;-144.99;100.00;61100.13;5073581;28;21041;-73
2021/03/13 02:26:55;;;;;;;3.53;1.33;;;;;;;-144.99;100.00;61100.13;5070430;28;20687;-74
2021/03/13 02:29:35;;;;;;;5.60;1.80;;;;;;;-144.99;100.00;61100.13;5072550;28;20622;-70
2021/03/13 02:32:04;;;;;;;11.20;2.90;;;;;;;-144.99;100.00;61100.13;5070962;28;20638;-72
2021/03/13 02:34:32;;;;;;;3.07;1.33;;;;;;;-144.99;100.00;61100.13;5072186;28;20848;-73
2021/03/13 02:37:01;;;;;;;6.87;1.37;;;;;;;-144.99;100.00;61100.13;5072398;28;20638;-72
2021/03/13 02:39:29;;;;;;;3.87;1.87;;;;;;;-144.99;100.00;61100.13;5073794;28;21153;-71
2021/03/13 02:42:02;;;;;;;9.43;2.23;;;;;;;-144.99;100.00;61100.13;5072679;28;20610;-71
2021/03/13 02:44:30;;;;;;;3.50;1.20;;;;;;;-144.99;100.00;61100.13;5076600;28;20972;-72
2021/03/13 02:46:57;;;;;;;3.33;1.50;;;;;;;-144.99;100.00;61100.13;5073634;28;20670;-71
2021/03/13 02:49:25;;;;;;;3.50;1.63;;;;;;;-144.99;100.00;61100.13;5073661;28;20606;-72
2021/03/13 02:51:53;;;;;;;6.50;3.03;;;;;;;-144.99;100.00;61100.13;5073186;28;20735;-72
2021/03/13 02:54:20;;;;;;;6.17;2.33;;;;;;;-144.99;100.00;61100.13;5074207;28;21182;-72
2021/03/13 02:56:46;;;;;;;7.33;2.53;;;;;;;-144.99;100.00;61100.13;5073323;28;20665;-72
2021/03/13 02:59:18;;;;;;;9.30;5.33;;;;;;;-144.99;100.00;61100.13;5074048;28;20619;-72
2021/03/13 03:01:46;;;;;;;7.57;2.87;;;;;;;-144.99;100.00;61100.13;5075141;28;20877;-73
2021/03/13 03:04:15;;;;;;;3.47;2.67;;;;;;;-144.99;100.00;61100.13;5071128;28;20618;-72
2021/03/13 03:06:44;;;;;;;5.03;2.77;;;;;;;-144.99;100.00;61100.13;5076789;28;20773;-71
2021/03/13 03:09:11;;;;;;;4.87;2.70;;;;;;;-144.99;100.00;61100.13;5075966;28;20635;-72
2021/03/13 03:11:40;;;;;;;7.90;3.43;;;;;;;-144.99;100.00;61100.13;5072551;28;20714;-73
2021/03/13 03:14:06;;;;;;;8.40;4.23;;;;;;;-144.99;100.00;61100.13;5072076;28;20627;-72
2021/03/13 03:16:32;;;;;;;7.57;3.33;;;;;;;-144.99;100.00;61100.13;5070096;28;20650;-74
2021/03/13 03:19:00;;;;;;;8.27;3.73;;;;;;;-144.99;100.00;61100.13;5072175;28;20619;-73
2021/03/13 03:21:26;;;;;;;9.73;3.63;;;;;;;-144.99;100.00;61100.13;5073018;28;20945;-74
2021/03/13 03:23:53;;;;;;;8.33;3.73;;;;;;;-144.99;100.00;61100.13;5079854;28;20626;-73
2021/03/13 03:26:19;;;;;;;10.50;4.60;;;;;;;-144.99;100.00;61100.13;5071675;28;20719;-73
2021/03/13 03:28:45;;;;;;;6.13;3.40;;;;;;;-144.99;100.00;61100.13;5072312;28;20627;-72
2021/03/13 03:31:14;;;;;;;5.73;3.97;;;;;;;-144.99;100.00;61100.13;5070358;28;20631;-73
2021/03/13 03:33:40;;;;;;;8.13;3.30;;;;;;;-144.99;100.00;61100.13;5071883;28;20611;-72
2021/03/13 03:36:06;;;;;;;9.97;3.97;;;;;;;-144.99;100.00;61100.13;5071913;28;21161;-73
2021/03/13 03:38:33;;;;;;;4.93;4.43;;;;;;;-144.99;100.00;61100.13;5072491;28;20630;-70
2021/03/13 03:41:00;;;;;;;10.03;4.00;;;;;;;-144.99;100.00;61100.13;5071977;28;21195;-72
2021/03/13 03:43:31;;;;;;;8.17;4.53;;;;;;;-144.99;100.00;61100.13;5069386;28;21156;-71
2021/03/13 03:45:59;;;;;;;9.23;3.70;;;;;;;-144.99;100.00;61100.13;5072408;28;20695;-72
2021/03/13 03:48:26;;;;;;;9.57;4.73;;;;;;;-144.99;100.00;61100.13;5075690;28;20611;-73
2021/03/13 03:50:52;;;;;;;9.43;5.30;;;;;;;-144.99;100.00;61100.13;5072762;28;20626;-71
2021/03/13 03:53:22;;;;;;;5.73;3.80;;;;;;;-144.99;100.00;61100.13;5073172;28;20630;-72
2021/03/13 03:55:53;;;;;;;9.23;4.67;;;;;;;-144.99;100.00;61100.13;5072929;28;20610;-73
2021/03/13 03:58:22;;;;;;;8.47;4.83;;;;;;;-144.99;100.00;61100.13;5073845;28;20664;-71
2021/03/13 04:00:49;;;;;;;10.80;5.37;;;;;;;-144.99;100.00;61100.13;5071007;28;21161;-72
2021/03/13 04:03:18;;;;;;;8.67;4.67;;;;;;;-144.99;100.00;61100.13;5069490;28;20612;-74
2021/03/13 04:05:46;;;;;;;6.77;4.40;;;;;;;-144.99;100.00;61100.13;5071809;28;20634;-73
2021/03/13 04:08:14;;;;;;;7.90;5.43;;;;;;;-144.99;100.00;61100.13;5072427;28;20678;-73
2021/03/13 04:10:43;;;;;;;8.27;4.23;;;;;;;-144.99;100.00;61100.13;5072703;28;20634;-72
2021/03/13 04:13:11;;;;;;;11.67;5.37;;;;;;;-144.99;100.00;61100.13;5072601;28;20623;-73
2021/03/13 04:15:38;;;;;;;13.93;5.37;;;;;;;-144.99;100.00;61100.13;5070007;28;20619;-73
2021/03/13 04:18:04;;;;;;;15.93;5.43;;;;;;;-144.99;100.00;61100.13;5072601;28;20689;-72
2021/03/13 04:20:31;;;;;;;14.53;6.43;;;;;;;-144.99;100.00;61100.13;5070598;28;20876;-73
2021/03/13 04:22:58;;;;;;;10.10;5.23;;;;;;;-144.99;100.00;61100.13;5071860;28;20689;-73
2021/03/13 04:25:26;;;;;;;15.03;8.30;;;;;;;-144.99;100.00;61100.13;5072515;28;20615;-73
2021/03/13 04:27:52;;;;;;;8.67;5.90;;;;;;;-144.99;100.00;61100.13;5064467;28;20783;-74
2021/03/13 04:30:19;;;;;;;10.20;5.17;;;;;;;-144.99;100.00;61100.13;5068725;28;20615;-73
2021/03/13 04:32:50;;;;;;;15.03;4.90;;;;;;;-144.99;100.00;61100.13;5071605;28;20668;-72
2021/03/13 04:35:18;;;;;;;7.20;4.67;;;;;;;-144.99;100.00;61100.13;5071878;28;20668;-73
2021/03/13 04:37:46;;;;;;;14.03;5.03;;;;;;;-144.99;100.00;61100.13;5068527;28;20653;-72
2021/03/13 04:40:14;;;;;;;19.47;6.93;;;;;;;-144.99;100.00;61100.13;5069522;28;20627;-72
2021/03/13 04:42:41;;;;;;;14.37;4.93;;;;;;;-144.99;100.00;61100.13;5070541;28;20736;-71
2021/03/13 04:45:10;;;;;;;9.10;5.90;;;;;;;-144.99;100.00;61100.13;5068007;28;20630;-70
2021/03/13 04:47:38;;;;;;;10.73;5.17;;;;;;;-144.99;100.00;61100.13;5069179;28;21145;-73
2021/03/13 04:50:05;;;;;;;10.07;4.90;;;;;;;-144.99;100.00;61100.13;5070392;28;20748;-72
2021/03/13 04:52:31;;;;;;;10.07;5.87;;;;;;;-144.99;100.00;61100.13;5070932;28;21172;-70
2021/03/13 04:54:59;;;;;;;12.10;6.03;;;;;;;-144.99;100.00;61100.13;5069585;28;21032;-71
2021/03/13 04:57:25;;;;;;;11.77;6.20;;;;;;;-144.99;100.00;61100.13;5069910;28;20655;-72
2021/03/13 04:59:51;;;;;;;12.40;5.80;;;;;;;-144.99;100.00;61100.13;5068541;28;20610;-71
2021/03/13 05:02:17;;;;;;;12.20;6.20;;;;;;;-144.99;100.00;61100.13;5069824;28;20977;-71
2021/03/13 05:04:44;;;;;;;10.73;6.57;;;;;;;-144.99;100.00;61100.13;5069812;28;21175;-72
2021/03/13 05:07:10;;;;;;;10.40;6.57;;;;;;;-144.99;100.00;61100.13;5070731;28;20673;-72
2021/03/13 05:09:36;;;;;;;15.47;8.10;;;;;;;-144.99;100.00;61100.13;5071740;28;21237;-71
2021/03/13 05:12:03;;;;;;;12.03;6.80;;;;;;;-144.99;100.00;61100.13;5072260;28;20651;-73
2021/03/13 05:14:29;;;;;;;15.67;8.43;;;;;;;-144.99;100.00;61100.13;5069769;28;20212;-72
2021/03/13 05:16:55;;;;;;;10.90;7.57;;;;;;;-144.99;100.00;61100.13;5072897;28;20643;-71
2021/03/13 05:19:21;;;;;;;14.20;6.57;;;;;;;-144.99;100.00;61100.13;5073141;28;20631;-72
2021/03/13 05:21:48;;;;;;;13.07;6.70;;;;;;;-144.99;100.00;61100.13;5074511;28;20205;-73
2021/03/13 05:24:14;;;;;;;21.77;8.40;;;;;;;-144.99;100.00;61100.13;5075348;28;20327;-73
2021/03/13 05:26:40;;;;;;;14.67;8.43;;;;;;;-144.99;100.00;61100.13;5071167;28;20929;-74
2021/03/13 05:29:06;;;;;;;17.83;7.73;;;;;;;-144.99;100.00;61100.13;5069907;28;20712;-72
2021/03/13 05:31:32;;;;;;;12.20;8.10;;;;;;;-144.99;100.00;61100.13;5068156;28;21391;-73
2021/03/13 05:33:58;;;;;;;15.87;9.57;;;;;;;-144.99;100.00;61100.13;5070769;28;20285;-72
2021/03/13 05:36:23;;;;;;;14.63;7.83;;;;;;;-144.99;100.00;61100.13;5071420;28;20387;-73
2021/03/13 05:38:50;;;;;;;15.03;7.93;;;;;;;-144.99;100.00;61100.13;5071513;28;20224;-72
2021/03/13 05:41:17;;;;;;;17.13;8.63;;;;;;;-144.99;100.00;61100.13;5071504;28;20201;-74
2021/03/13 05:43:44;;;;;;;16.27;9.63;;;;;;;-144.99;100.00;61100.13;5070788;28;20660;-72
2021/03/13 05:46:11;;;;;;;16.07;9.33;;;;;;;-144.99;100.00;61100.13;5068531;28;20931;-73
2021/03/13 05:48:37;;;;;;;14.30;8.83;;;;;;;-144.99;100.00;61100.13;5071652;28;20619;-73
2021/03/13 05:51:04;;;;;;;13.17;9.90;;;;;;;-144.99;100.00;61100.13;5070165;28;20619;-72
2021/03/13 05:53:31;;;;;;;11.67;8.57;;;;;;;-144.99;100.00;61100.13;5070802;28;20629;-73
2021/03/13 05:55:59;;;;;;;19.73;11.60;;;;;;;-144.99;100.00;61100.13;5070725;28;20615;-72
2021/03/13 05:58:25;;;;;;;20.60;9.30;;;;;;;-144.99;100.00;61100.13;5070806;28;20807;-73
2021/03/13 06:00:51;;;;;;;12.07;9.40;;;;;;;-144.99;100.00;61100.13;5067969;28;20626;-73
2021/03/13 06:03:17;;;;;;;18.67;11.47;;;;;;;-144.99;100.00;61100.13;5071120;28;20615;-71
2021/03/13 06:05:45;;;;;;;15.00;9.87;;;;;;;-144.99;100.00;61100.13;5070878;28;20615;-72
2021/03/13 06:08:12;;;;;;;24.07;14.87;;;;;;;-144.99;100.00;61100.13;5072322;28;20681;-72
2021/03/13 06:10:38;;;;;;;16.97;11.57;;;;;;;-144.99;100.00;61100.13;5072310;28;20633;-73
2021/03/13 06:13:06;;;;;;;19.33;11.20;;;;;;;-144.99;100.00;61100.13;5071827;28;20619;-72
2021/03/13 06:15:32;;;;;;;15.97;9.97;;;;;;;-144.99;100.00;61100.13;5071062;28;20668;-72
2021/03/13 06:17:59;;;;;;;13.30;9.67;;;;;;;-144.99;100.00;61100.13;5074371;28;20750;-72
2021/03/13 06:20:31;;;;;;;14.57;8.80;;;;;;;-144.99;100.00;61100.13;5073709;28;20216;-74
2021/03/13 06:23:01;;;;;;;12.63;11.33;;;;;;;-144.99;100.00;61100.13;5073879;28;20749;-73
2021/03/13 06:25:28;;;;;;;21.77;10.80;;;;;;;-144.99;100.00;61100.13;5071485;28;20607;-73
2021/03/13 06:28:07;;;;;;;14.90;11.53;;;;;;;-144.99;100.00;61100.13;5073477;28;20663;-72
2021/03/13 06:30:35;;;;;;;13.37;10.00;;;;;;;-144.99;100.00;61100.13;5071726;28;20701;-75
2021/03/13 06:33:18;;;;;;;19.20;10.40;;;;;;;-144.99;100.00;61100.13;5073618;28;20680;-73
2021/03/13 06:35:44;;;;;;;17.43;8.87;;;;;;;-144.99;100.00;61100.13;5072776;28;20611;-74
2021/03/13 06:38:15;;;;;;;14.57;9.17;;;;;;;-144.99;100.00;61100.13;5074203;28;20654;-76
2021/03/13 06:40:41;;;;;;;19.27;9.80;;;;;;;-144.99;100.00;61100.13;5073356;28;21217;-74
2021/03/13 06:43:23;;;;;;;13.53;8.77;;;;;;;-144.99;100.00;61100.13;5075043;28;20629;-74
2021/03/13 06:46:05;;;;;;;17.10;9.97;;;;;;;-144.99;100.00;61100.13;5072924;28;20626;-72
2021/03/13 06:48:37;;;;;;;13.20;8.63;;;;;;;-144.99;100.00;61100.13;5071978;28;20596;-76
2021/03/13 06:51:24;;;;;;;16.37;9.20;;;;;;;-144.99;100.00;61100.13;5073691;28;20672;-73
2021/03/13 06:54:15;;;;;;;12.80;7.77;;;;;;;-144.99;100.00;61100.13;5073890;28;20928;-73
2021/03/13 06:56:43;;;;;;;17.33;8.00;;;;;;;-144.99;100.00;61100.13;5057221;28;20690;-73
2021/03/13 06:59:21;;;;;;;8.80;6.47;;;;;;;-144.99;100.00;61100.13;5073451;28;20958;-74
2021/03/13 07:01:56;;;;;;;10.27;7.40;;;;;;;-144.99;100.00;61100.13;5072830;28;20675;-73
2021/03/13 07:04:30;;;;;;;15.13;7.33;;;;;;;-144.99;100.00;61100.13;5073942;28;21251;-73
2021/03/13 07:06:56;;;;;;;14.80;8.53;;;;;;;-144.99;100.00;61100.13;5075277;28;20658;-73
2021/03/13 07:09:41;;;;;;;10.70;8.43;;;;;;;-144.99;100.00;61100.13;5074519;28;20695;-73
2021/03/13 07:12:27;;;;;;;9.30;5.83;;;;;;;-144.99;100.00;61100.13;5067508;28;20618;-73
2021/03/13 07:14:56;;;;;;;8.50;5.53;;;;;;;-144.99;100.00;61100.13;5063510;28;20623;-72
2021/03/13 07:17:23;;;;;;;8.03;6.23;;;;;;;-144.99;100.00;61100.13;5071885;28;20669;-73
2021/03/13 07:19:50;;;;;;;8.77;6.20;;;;;;;-144.99;100.00;61100.13;5071234;28;20668;-74
2021/03/13 07:22:16;;;;;;;6.57;5.37;;;;;;;-144.99;100.00;61100.13;5071670;28;20619;-74
2021/03/13 07:24:43;;;;;;;11.73;4.93;;;;;;;-144.99;100.00;61100.13;5072176;28;21245;-75
2021/03/13 07:27:11;;;;;;;7.27;4.97;;;;;;;-144.99;100.00;61100.13;5079092;28;20657;-75
2021/03/13 07:29:39;;;;;;;5.77;4.53;;;;;;;-144.99;100.00;61100.13;5069458;28;21177;-75
2021/03/13 07:32:09;;;;;;;7.00;4.00;;;;;;;-144.99;100.00;61100.13;5068774;28;20953;-75
2021/03/13 07:34:37;;;;;;;7.50;3.53;;;;;;;-144.99;100.00;61100.13;5071714;28;20647;-76
2021/03/13 07:37:04;;;;;;;5.43;4.27;;;;;;;-144.99;100.00;61100.13;5071501;28;21017;-75
2021/03/13 07:39:35;;;;;;;7.20;3.40;;;;;;;-144.99;100.00;61100.13;5069711;28;20956;-75
2021/03/13 07:42:05;;;;;;;12.57;4.53;;;;;;;-144.99;100.00;61100.13;5067885;28;20646;-73
2021/03/13 07:44:31;;;;;;;4.50;3.30;;;;;;;-144.99;100.00;61100.13;5069461;28;20622;-74
2021/03/13 07:46:58;;;;;;;7.60;4.53;;;;;;;-144.99;100.00;61100.13;5070958;28;20681;-73
2021/03/13 07:49:25;;;;;;;6.10;3.23;;;;;;;-144.99;100.00;61100.13;5074281;28;20603;-77
2021/03/13 07:51:51;;;;;;;5.30;3.00;;;;;;;-144.99;100.00;61100.13;5073185;28;20619;-75
2021/03/13 07:54:18;;;;;;;5.33;3.20;;;;;;;-144.99;100.00;61100.13;5075000;28;20615;-75
2021/03/13 07:56:45;;;;;;;4.53;2.13;;;;;;;-144.99;100.00;61100.13;5073711;28;20651;-75
2021/03/13 07:59:12;;;;;;;4.83;2.20;;;;;;;-144.99;100.00;61100.13;5072906;28;21196;-74
2021/03/13 08:01:49;;;;;;;3.27;2.10;;;;;;;-144.99;100.00;61100.13;5072982;28;20622;-74
2021/03/13 08:04:52;;;;;;;3.70;2.43;;;;;;;-144.99;100.00;61100.13;5067188;28;21243;-73
2021/03/13 08:07:19;;;;;;;4.10;2.90;;;;;;;-144.99;100.00;61100.13;5073041;28;20682;-71
2021/03/13 08:09:45;;;;;;;4.50;2.10;;;;;;;-144.99;100.00;61100.13;5073392;28;20630;-76
2021/03/13 08:12:11;;;;;;;3.63;1.67;;;;;;;-144.99;100.00;61100.13;5073986;28;21054;-76
2021/03/13 08:14:38;;;;;;;1.90;1.10;;;;;;;-144.99;100.00;61100.13;5069862;28;20622;-73
2021/03/13 08:17:09;;;;;;;4.83;2.63;;;;;;;-144.99;100.00;61100.13;5071856;28;20643;-77
2021/03/13 08:19:38;;;;;;;1.13;1.03;;;;;;;-144.99;100.00;61100.13;5071180;28;21066;-76
2021/03/13 08:22:12;;;;;;;3.70;2.07;;;;;;;-144.99;100.00;61100.13;5072041;28;21021;-74
2021/03/13 08:24:44;;;;;;;2.80;1.70;;;;;;;-144.99;100.00;61100.13;5070962;28;20604;-76
2021/03/13 08:27:14;;;;;;;4.40;1.53;;;;;;;-144.99;100.00;61100.13;5070812;28;20662;-76
2021/03/13 08:29:58;;;;;;;4.63;1.23;;;;;;;-144.99;100.00;61100.13;5070743;28;20615;-74
2021/03/13 08:33:02;;;;;;;3.03;1.50;;;;;;;-144.99;100.00;61100.13;5071517;28;20626;-76
2021/03/13 08:35:33;;;;;;;1.83;1.33;;;;;;;-144.99;100.00;61100.13;5068644;28;20611;-75
2021/03/13 08:37:59;;;;;;;1.97;1.40;;;;;;;-144.99;100.00;61100.13;5070527;28;20642;-75
2021/03/13 08:40:28;;;;;;;1.37;0.83;;;;;;;-144.99;100.00;61100.13;5069086;28;20623;-75
2021/03/13 08:42:54;;;;;;;5.83;1.60;;;;;;;-144.99;100.00;61100.13;5070561;28;20685;-73
2021/03/13 08:45:21;;;;;;;4.60;1.53;;;;;;;-144.99;100.00;61100.13;5068376;28;20662;-75
2021/03/13 08:47:51;;;;;;;1.13;0.70;;;;;;;-144.99;100.00;61100.13;5070120;28;20715;-74
2021/03/13 08:50:51;;;;;;;4.80;1.37;;;;;;;-144.99;100.00;61100.13;5071428;28;20623;-75
2021/03/13 08:53:32;;;;;;;2.70;1.23;;;;;;;-144.99;100.00;61100.13;5073171;28;21046;-74
2021/03/13 08:55:59;;;;;;;1.07;0.97;;;;;;;-144.99;100.00;61100.13;5073164;28;20619;-74
2021/03/13 08:58:42;;;;;;;4.27;1.50;;;;;;;-144.99;100.00;61100.13;5070826;28;20619;-75
2021/03/13 09:01:19;;;;;;;0.80;0.80;;;;;;;-144.99;100.00;61100.13;5068348;28;20626;-75
2021/03/13 09:03:47;;;;;;;2.10;0.93;;;;;;;-144.99;100.00;61100.13;5068978;28;20676;-74
2021/03/13 09:06:14;;;;;;;2.33;1.30;;;;;;;-144.99;100.00;61100.13;5077568;28;20670;-73
2021/03/13 09:08:40;;;;;;;2.73;0.87;;;;;;;-144.99;100.00;61100.13;5076904;28;20639;-73
2021/03/13 09:11:07;;;;;;;1.83;0.67;;;;;;;-144.99;100.00;61100.13;5068570;28;20627;-73
2021/03/13 09:13:33;;;;;;;1.33;1.00;;;;;;;-144.99;100.00;61100.13;5069073;28;20614;-72
2021/03/13 09:15:59;;;;;;;5.53;1.60;;;;;;;-144.99;100.00;61100.13;5064339;28;20631;-75
2021/03/13 09:18:25;;;;;;;1.43;0.70;;;;;;;-144.99;100.00;61100.13;5065786;28;20633;-76
2021/03/13 09:20:51;;;;;;;1.47;0.83;;;;;;;-144.99;100.00;61100.13;5064355;28;20220;-75
2021/03/13 09:23:17;;;;;;;1.57;1.20;;;;;;;-144.99;100.00;61100.13;5068457;28;20669;-73
2021/03/13 09:25:43;;;;;;;0.57;0.57;;;;;;;-144.99;100.00;61100.13;5066660;28;20622;-74
2021/03/13 09:28:10;;;;;;;3.63;1.40;;;;;;;-144.99;100.00;61100.13;5067401;28;20683;-73
2021/03/13 09:30:36;;;;;;;1.97;1.43;;;;;;;-144.99;100.00;61100.13;5066831;28;20647;-74
2021/03/13 09:33:02;;;;;;;1.33;0.80;;;;;;;-144.99;100.00;61100.13;5071580;28;20634;-74
2021/03/13 09:35:29;;;;;;;2.37;1.40;;;;;;;-144.99;100.00;61100.13;5070496;28;20618;-76
2021/03/13 09:37:55;;;;;;;1.80;0.77;;;;;;;-144.99;100.00;61100.13;5072066;28;21279;-75
2021/03/13 09:40:23;;;;;;;3.23;0.97;;;;;;;-144.99;100.00;61100.13;5075849;28;20629;-75
2021/03/13 09:42:50;;;;;;;3.27;1.93;;;;;;;-144.99;100.00;61100.13;5076171;28;20936;-75
2021/03/13 09:45:19;;;;;;;1.87;0.73;;;;;;;-144.99;100.00;61100.13;5069300;28;20700;-74
2021/03/13 09:47:48;;;;;;;0.87;0.67;;;;;;;-144.99;100.00;61100.13;5069214;28;20989;-75
2021/03/13 09:50:15;;;;;;;1.13;0.57;;;;;;;-144.99;100.00;61100.13;5070683;28;21184;-75
2021/03/13 09:52:43;;;;;;;3.40;0.93;;;;;;;-144.99;100.00;61100.13;5070753;28;20630;-75
2021/03/13 09:55:11;;;;;;;2.17;0.80;;;;;;;-144.99;100.00;61100.13;5071311;28;20622;-74
2021/03/13 09:57:40;;;;;;;2.90;1.30;;;;;;;-144.99;100.00;61100.13;5070608;28;21271;-75
2021/03/13 10:00:09;;;;;;;2.10;0.70;;;;;;;-144.99;100.00;61100.13;5063405;28;20618;-74
2021/03/13 10:02:37;;;;;;;2.80;1.07;;;;;;;-144.99;100.00;61100.13;5074930;28;20615;-76
2021/03/13 10:05:04;;;;;;;2.00;0.90;;;;;;;-144.99;100.00;61100.13;5069777;28;20645;-75
2021/03/13 10:07:31;;;;;;;1.07;0.63;;;;;;;-144.99;100.00;61100.13;5076240;28;20665;-74
2021/03/13 10:09:59;;;;;;;7.53;1.17;;;;;;;-144.99;100.00;61100.13;5075447;28;20631;-78
2021/03/13 10:12:27;;;;;;;3.77;1.10;;;;;;;-144.99;100.00;61100.13;5074640;28;20607;-76
2021/03/13 10:14:54;;;;;;;3.97;1.53;;;;;;;-144.99;100.00;61100.13;5072840;28;20662;-76
2021/03/13 10:17:20;;;;;;;2.93;1.00;;;;;;;-144.99;100.00;61100.13;5073918;28;20722;-78
2021/03/13 10:19:49;;;;;;;2.53;0.60;;;;;;;-144.99;100.00;61100.13;5074984;28;20615;-75
2021/03/13 10:22:19;;;;;;;4.60;1.07;;;;;;;-144.99;100.00;61100.13;5075288;28;20216;-75
2021/03/13 10:24:50;;;;;;;1.77;1.10;;;;;;;-144.99;100.00;61100.13;5075341;28;20208;-75
2021/03/13 10:27:35;;;;;;;3.30;1.30;;;;;;;-144.99;100.00;61100.13;5070888;28;20220;-76
2021/03/13 10:30:03;;;;;;;3.93;1.00;;;;;;;-144.99;100.00;61100.13;5067848;28;20196;-77
2021/03/13 10:32:31;;;;;;;2.30;1.17;;;;;;;-144.99;100.00;61100.13;5070520;28;20207;-76
2021/03/13 10:35:21;;;;;;;1.03;0.47;;;;;;;-144.99;100.00;61100.13;5070372;28;20288;-76
2021/03/13 10:37:49;;;;;;;2.70;0.77;;;;;;;-144.99;100.00;61100.13;5070082;28;20230;-74
2021/03/13 10:40:37;;;;;;;1.97;0.93;;;;;;;-144.99;100.00;61100.13;5070629;28;20216;-75
2021/03/13 10:43:19;;;;;;;4.60;1.53;;;;;;;-144.99;100.00;61100.13;5072798;28;20197;-76
2021/03/13 10:46:01;;;;;;;5.40;2.30;;;;;;;-144.99;100.00;61100.13;5073582;28;20212;-75
2021/03/13 10:48:28;;;;;;;4.83;1.03;;;;;;;-144.99;100.00;61100.13;5076825;28;20220;-76
2021/03/13 10:50:55;;;;;;;11.33;6.00;;;;;;;-144.99;100.00;61100.13;5077431;28;20189;-74
2021/03/13 10:53:30;;;;;;;2.77;1.20;;;;;;;-144.99;100.00;61100.13;5085905;28;20216;-78
2021/03/13 10:55:58;;;;;;;5.40;2.97;;;;;;;-144.99;100.00;61100.13;5070882;28;20658;-73
2021/03/13 10:58:24;;;;;;;1.77;0.67;;;;;;;-144.99;100.00;61100.13;5073082;28;20211;-73
2021/03/13 11:00:51;;;;;;;6.17;1.53;;;;;;;-144.99;100.00;61100.13;5068239;28;20197;-72
2021/03/13 11:03:17;;;;;;;1.60;0.90;;;;;;;-144.99;100.00;61100.13;5070660;28;20201;-74
2021/03/13 11:05:43;;;;;;;4.83;1.57;;;;;;;-144.99;100.00;61100.13;5071160;28;20280;-75
2021/03/13 11:08:12;;;;;;;1.53;0.90;;;;;;;-144.99;100.00;61100.13;5070655;28;20243;-76
2021/03/13 11:10:38;;;;;;;5.07;1.40;;;;;;;-144.99;100.00;61100.13;5072775;28;20235;-75
2021/03/13 11:13:04;;;;;;;3.60;1.40;;;;;;;-144.99;100.00;61100.13;5075367;28;20219;-76
2021/03/13 11:15:31;;;;;;;3.37;1.57;;;;;;;-144.99;100.00;61100.13;5070166;28;20200;-73